Time;durP1;ratioP1;P1;durP2;ratioP2;P2;SDS_P1;SDS_P2;PMS_P1;PMS_P2;Temp;Humidity;BMP_temperature;BMP_pressure;BME280_temperature;BME280_humidity;BME280_pressure;Samples;Min_cycle;Max_cycle;Signal;HPM_P1;HPM_P2
2021/03/15 00:00:02;;;;;;;27.30;16.30;;;281.80;2278.40;;;;;;5007222;28;20076;-69
2021/03/15 00:02:28;;;;;;;27.58;17.38;;;281.80;2278.40;;;;;;5010091;28;20028;-70
2021/03/15 00:04:54;;;;;;;29.38;17.55;;;281.70;2278.40;;;;;;5010069;28;20406;-71
2021/03/15 00:07:19;;;;;;;34.25;20.00;;;281.70;2278.40;;;;;;5009946;28;20068;-70
2021/03/15 00:09:45;;;;;;;35.63;21.80;;;281.70;2278.40;;;;;;5009906;28;20030;-73
2021/03/15 00:12:13;;;;;;;41.85;24.38;;;281.60;2278.40;;;;;;5009391;28;20030;-70
2021/03/15 00:14:38;;;;;;;44.15;24.88;;;256.90;2252.80;;;;;;5010481;28;20018;-70
2021/03/15 00:17:04;;;;;;;41.35;25.27;;;256.90;2252.80;;;;;;5011323;28;20391;-72
2021/03/15 00:19:30;;;;;;;45.92;25.42;;;256.80;2252.80;;;;;;5011246;28;20038;-69
2021/03/15 00:21:55;;;;;;;44.28;26.00;;;256.80;2252.80;;;;;;5011470;28;20065;-71
2021/03/15 00:24:21;;;;;;;48.75;28.15;;;256.70;2252.80;;;;;;5011080;28;20364;-70
2021/03/15 00:26:47;;;;;;;50.70;28.20;;;256.70;2252.80;;;;;;5011348;28;20048;-71
2021/03/15 00:29:12;;;;;;;51.40;28.25;;;256.70;2252.80;;;;;;5010904;28;20046;-70
2021/03/15 00:31:38;;;;;;;51.10;29.48;;;256.60;2252.80;;;;;;5011197;28;20072;-70
2021/03/15 00:34:04;;;;;;;55.05;29.73;;;256.50;2252.80;;;;;;5011288;28;20100;-70
2021/03/15 00:36:30;;;;;;;56.75;31.42;;;256.50;2252.80;;;;;;5010929;28;20117;-71
2021/03/15 00:38:56;;;;;;;56.50;31.25;;;256.30;2252.80;;;;;;5011033;28;20387;-68
2021/03/15 00:41:21;;;;;;;56.92;31.20;;;256.40;2252.80;;;;;;5011251;28;20018;-69
2021/03/15 00:43:47;;;;;;;62.50;33.50;;;256.40;2252.80;;;;;;5011371;28;20577;-71
2021/03/15 00:46:13;;;;;;;61.33;32.58;;;256.30;2252.80;;;;;;5011126;28;20041;-69
2021/03/15 00:48:38;;;;;;;59.10;32.03;;;256.20;2252.80;;;;;;5010685;28;20041;-70
2021/03/15 00:51:04;;;;;;;68.05;35.88;;;256.20;2252.80;;;;;;5006759;28;20426;-70
2021/03/15 00:53:30;;;;;;;63.35;33.28;;;256.10;2252.80;;;;;;5010916;28;20018;-70
2021/03/15 00:55:56;;;;;;;69.63;35.38;;;256.00;2252.80;;;;;;5011358;28;20403;-69
2021/03/15 00:58:22;;;;;;;64.10;33.50;;;231.30;2252.80;;;;;;5010877;28;20042;-69
2021/03/15 01:00:49;;;;;;;64.78;32.63;;;231.30;2252.80;;;;;;5010913;28;20030;-69
2021/03/15 01:03:15;;;;;;;67.88;35.45;;;231.30;2252.80;;;;;;5011367;28;20022;-69
2021/03/15 01:05:44;;;;;;;70.15;36.00;;;231.30;2252.80;;;;;;5010852;28;20033;-69
2021/03/15 01:08:12;;;;;;;68.68;36.17;;;231.30;2252.80;;;;;;5011127;28;20088;-72
2021/03/15 01:10:39;;;;;;;65.88;34.17;;;231.20;2252.80;;;;;;5010648;28;20080;-69
2021/03/15 01:13:06;;;;;;;72.10;38.40;;;231.10;2252.80;;;;;;5011140;28;20040;-69
2021/03/15 01:15:32;;;;;;;103.18;49.03;;;231.10;2252.80;;;;;;5011027;28;20037;-69
2021/03/15 01:17:58;;;;;;;72.60;37.28;;;231.10;2252.80;;;;;;5010683;28;20092;-68
2021/03/15 01:20:25;;;;;;;104.10;51.92;;;231.00;2252.80;;;;;;5010703;28;20025;-69
2021/03/15 01:22:51;;;;;;;103.95;51.67;;;231.00;2252.80;;;;;;5011982;28;20625;-70
2021/03/15 01:25:20;;;;;;;101.55;48.88;;;231.00;2252.80;;;;;;5014659;28;20018;-69
2021/03/15 01:27:46;;;;;;;86.68;45.45;;;231.00;2252.80;;;;;;5014402;28;20072;-68
2021/03/15 01:30:14;;;;;;;57.30;33.00;;;230.90;2252.80;;;;;;5014189;28;20491;-69
2021/03/15 01:32:40;;;;;;;56.85;31.08;;;230.90;2252.80;;;;;;5014490;28;20054;-70
2021/03/15 01:35:07;;;;;;;50.75;29.83;;;230.90;2252.80;;;;;;5014489;28;20525;-69
2021/03/15 01:37:33;;;;;;;48.20;29.13;;;230.90;2252.80;;;;;;5014238;28;20045;-69
2021/03/15 01:39:59;;;;;;;45.72;27.73;;;230.80;2252.80;;;;;;5014166;28;20040;-69
2021/03/15 01:42:25;;;;;;;48.63;28.13;;;230.80;2252.80;;;;;;5014368;28;20026;-69
2021/03/15 01:44:51;;;;;;;50.40;28.25;;;230.80;2252.80;;;;;;5013833;28;20037;-69
2021/03/15 01:47:18;;;;;;;53.28;28.88;;;230.80;2252.80;;;;;;5014247;28;20080;-70
2021/03/15 01:49:44;;;;;;;48.03;27.30;;;230.90;2252.80;;;;;;5013758;28;20034;-70
2021/03/15 01:52:10;;;;;;;48.60;27.85;;;230.90;2252.80;;;;;;5013999;28;20100;-68
2021/03/15 01:54:36;;;;;;;48.65;27.58;;;230.90;2252.80;;;;;;5013849;28;20029;-69
2021/03/15 01:57:02;;;;;;;46.80;27.52;;;230.90;2252.80;;;;;;5014153;28;20021;-70
2021/03/15 01:59:28;;;;;;;46.45;27.20;;;230.90;2252.80;;;;;;5013496;28;20479;-69
2021/03/15 02:01:54;;;;;;;52.40;28.63;;;230.90;2252.80;;;;;;5014095;28;20037;-69
2021/03/15 02:04:22;;;;;;;52.15;29.90;;;230.90;2252.80;;;;;;5013674;28;20026;-69
2021/03/15 02:06:49;;;;;;;52.15;29.55;;;230.80;2252.80;;;;;;5013593;28;20495;-69
2021/03/15 02:09:15;;;;;;;51.55;28.73;;;230.80;2252.80;;;;;;5013555;28;20049;-70
2021/03/15 02:12:05;;;;;;;51.72;29.08;;;230.80;2252.80;;;;;;5013596;28;20482;-70
2021/03/15 02:14:42;;;;;;;57.35;30.27;;;230.80;2252.80;;;;;;5013290;28;20025;-69
2021/03/15 02:17:28;;;;;;;54.30;29.98;;;230.80;2252.80;;;;;;5013406;28;20026;-70
2021/03/15 02:20:26;;;;;;;51.38;29.17;;;230.80;2252.80;;;;;;5012206;28;20049;-70
2021/03/15 02:23:27;;;;;;;51.67;28.75;;;230.90;2252.80;;;;;;5013180;28;20029;-69
2021/03/15 02:25:56;;;;;;;51.75;28.42;;;230.80;2252.80;;;;;;5013163;28;20030;-68
2021/03/15 02:28:47;;;;;;;52.75;29.13;;;230.80;2252.80;;;;;;5013357;28;20152;-70
2021/03/15 02:31:37;;;;;;;53.88;28.63;;;230.80;2252.80;;;;;;5013547;28;20026;-70
2021/03/15 02:34:21;;;;;;;54.40;29.63;;;230.80;2252.80;;;;;;5012952;28;20444;-69
2021/03/15 02:36:49;;;;;;;54.40;28.63;;;230.90;2252.80;;;;;;5013003;28;20495;-69
2021/03/15 02:39:23;;;;;;;56.25;31.08;;;230.90;2252.80;;;;;;5012999;28;20036;-70
2021/03/15 02:41:52;;;;;;;53.17;29.23;;;230.90;2252.80;;;;;;5011633;28;20384;-70
2021/03/15 02:44:19;;;;;;;58.25;29.83;;;230.90;2252.80;;;;;;5013254;28;20014;-73
2021/03/15 02:46:47;;;;;;;59.65;31.00;;;230.90;2252.80;;;;;;5012890;28;20025;-72
2021/03/15 02:49:16;;;;;;;59.45;30.17;;;230.70;2252.80;;;;;;5012595;28;20022;-70
2021/03/15 02:51:45;;;;;;;51.70;27.98;;;230.70;2252.80;;;;;;5012915;28;20029;-70
2021/03/15 02:54:13;;;;;;;49.92;25.98;;;230.70;2252.80;;;;;;5012789;28;20033;-69
2021/03/15 02:56:42;;;;;;;49.97;26.42;;;230.70;2252.80;;;;;;5012767;28;20029;-74
2021/03/15 02:59:10;;;;;;;51.05;26.45;;;230.60;2252.80;;;;;;5012582;28;20026;-70
2021/03/15 03:01:38;;;;;;;46.55;26.40;;;230.60;2252.80;;;;;;5012717;28;20052;-71
2021/03/15 03:04:07;;;;;;;50.28;26.65;;;230.60;2252.80;;;;;;5012814;28;20493;-68
2021/03/15 03:06:34;;;;;;;47.10;26.13;;;230.60;2252.80;;;;;;5012715;28;20509;-69
2021/03/15 03:09:01;;;;;;;45.97;25.30;;;230.60;2252.80;;;;;;5012195;28;20482;-69
2021/03/15 03:11:29;;;;;;;48.28;25.00;;;230.60;2252.80;;;;;;5012864;28;20026;-69
2021/03/15 03:13:56;;;;;;;45.95;25.33;;;230.60;2252.80;;;;;;5012713;28;20478;-69
2021/03/15 03:16:27;;;;;;;46.25;25.60;;;230.70;2252.80;;;;;;5012267;28;20030;-69
2021/03/15 03:18:55;;;;;;;47.63;25.23;;;230.70;2252.80;;;;;;5012024;28;20533;-70
2021/03/15 03:21:22;;;;;;;48.85;26.38;;;230.70;2252.80;;;;;;5012324;28;20070;-69
2021/03/15 03:23:51;;;;;;;48.55;26.17;;;230.70;2252.80;;;;;;5012600;28;20470;-73
2021/03/15 03:26:21;;;;;;;49.13;25.65;;;230.60;2252.80;;;;;;5012180;28;20025;-70
2021/03/15 03:28:49;;;;;;;48.35;26.45;;;230.60;2252.80;;;;;;5012027;28;20018;-69
2021/03/15 03:31:15;;;;;;;46.85;24.65;;;230.50;2252.80;;;;;;5011992;28;20725;-70
2021/03/15 03:33:42;;;;;;;49.45;26.42;;;230.50;2252.80;;;;;;5012283;28;20105;-69
2021/03/15 03:36:08;;;;;;;50.92;26.58;;;230.40;2252.80;;;;;;5011994;28;20033;-70
2021/03/15 03:38:34;;;;;;;51.97;26.15;;;205.70;2252.80;;;;;;5011889;28;20033;-70
2021/03/15 03:41:01;;;;;;;47.95;25.20;;;205.70;2252.80;;;;;;5012088;28;20025;-72
2021/03/15 03:43:26;;;;;;;45.17;25.20;;;205.70;2252.80;;;;;;5012049;28;20042;-73
2021/03/15 03:45:52;;;;;;;46.72;24.08;;;230.40;2252.80;;;;;;5011856;28;20060;-69
2021/03/15 03:48:18;;;;;;;46.90;24.05;;;205.70;2252.80;;;;;;5004405;28;20025;-70
2021/03/15 03:50:44;;;;;;;47.05;23.73;;;205.60;2252.80;;;;;;5011535;28;20114;-69
2021/03/15 03:53:14;;;;;;;46.20;23.60;;;205.60;2252.80;;;;;;5011999;28;20026;-69
2021/03/15 03:55:47;;;;;;;45.40;24.00;;;205.60;2252.80;;;;;;5011729;28;20021;-69
2021/03/15 03:58:14;;;;;;;47.22;23.08;;;205.60;2252.80;;;;;;5011802;28;20033;-69
2021/03/15 04:00:41;;;;;;;44.42;23.27;;;205.60;2252.80;;;;;;5011114;28;20018;-69
2021/03/15 04:03:14;;;;;;;46.38;24.77;;;205.60;2252.80;;;;;;5011835;28;20499;-70
2021/03/15 04:05:43;;;;;;;46.08;23.27;;;205.60;2252.80;;;;;;5008165;28;20033;-69
2021/03/15 04:08:15;;;;;;;43.47;22.73;;;205.50;2252.80;;;;;;5012041;28;20026;-69
2021/03/15 04:10:41;;;;;;;41.28;22.05;;;205.60;2252.80;;;;;;5011162;28;20456;-69
2021/03/15 04:13:12;;;;;;;43.35;22.65;;;205.70;2252.80;;;;;;5011846;28;20026;-69
2021/03/15 04:15:45;;;;;;;49.03;25.92;;;205.70;2252.80;;;;;;5011579;28;20105;-69
2021/03/15 04:18:15;;;;;;;47.28;24.77;;;205.70;2252.80;;;;;;5011421;28;20395;-69
2021/03/15 04:20:44;;;;;;;50.53;25.52;;;205.60;2252.80;;;;;;5011482;28;20080;-68
2021/03/15 04:23:20;;;;;;;50.35;24.70;;;205.60;2252.80;;;;;;5011127;28;20026;-69
2021/03/15 04:25:48;;;;;;;42.55;22.75;;;205.50;2252.80;;;;;;5011376;28;20068;-68
2021/03/15 04:28:14;;;;;;;43.63;22.65;;;205.50;2252.80;;;;;;5011332;28;20454;-69
2021/03/15 04:30:42;;;;;;;43.47;22.27;;;205.40;2252.80;;;;;;5011103;28;20502;-68
2021/03/15 04:33:09;;;;;;;42.30;21.17;;;205.40;2252.80;;;;;;5011237;28;20054;-69
2021/03/15 04:35:36;;;;;;;43.97;22.05;;;205.40;2252.80;;;;;;5011325;28;20108;-71
2021/03/15 04:38:05;;;;;;;40.85;22.00;;;205.40;2252.80;;;;;;5011248;28;20018;-68
2021/03/15 04:40:33;;;;;;;42.92;21.75;;;205.40;2252.80;;;;;;5007762;28;20046;-69
2021/03/15 04:43:00;;;;;;;39.78;20.88;;;205.40;2252.80;;;;;;4998954;28;20022;-69
2021/03/15 04:45:42;;;;;;;35.63;19.77;;;205.40;2252.80;;;;;;5011138;28;20037;-69
2021/03/15 04:48:09;;;;;;;34.15;18.85;;;205.30;2252.80;;;;;;5011384;28;20387;-69
2021/03/15 04:50:36;;;;;;;33.08;18.85;;;205.40;2252.80;;;;;;5010714;28;20049;-69
2021/03/15 04:53:03;;;;;;;32.90;18.70;;;205.40;2252.80;;;;;;5011325;28;20026;-69
2021/03/15 04:55:30;;;;;;;32.92;18.48;;;205.50;2252.80;;;;;;5007398;28;20572;-68
2021/03/15 04:57:57;;;;;;;33.42;18.45;;;205.50;2252.80;;;;;;5007497;28;20030;-68
2021/03/15 05:00:24;;;;;;;31.30;17.83;;;205.50;2252.80;;;;;;5011753;28;20068;-68
2021/03/15 05:02:51;;;;;;;32.53;19.00;;;205.50;2252.80;;;;;;5014445;28;20490;-68
2021/03/15 05:05:17;;;;;;;30.88;18.48;;;205.50;2252.80;;;;;;5011696;28;20030;-69
2021/03/15 05:07:46;;;;;;;29.10;17.42;;;205.60;2252.80;;;;;;5015084;28;20204;-68
2021/03/15 05:10:14;;;;;;;18.35;11.23;;;205.60;2252.80;;;;;;5014523;28;20029;-68
2021/03/15 05:12:42;;;;;;;9.80;5.65;;;205.50;2252.80;;;;;;5001939;28;20513;-69
2021/03/15 05:15:10;;;;;;;8.30;4.90;;;205.30;2252.80;;;;;;5014697;28;20067;-69
2021/03/15 05:17:38;;;;;;;7.30;4.60;;;205.20;2252.80;;;;;;5014217;28;20502;-69
2021/03/15 05:20:07;;;;;;;6.93;4.65;;;205.00;2252.80;;;;;;5014595;28;20034;-68
2021/03/15 05:22:35;;;;;;;17.38;7.55;;;204.90;2252.80;;;;;;5011533;28;20505;-68
2021/03/15 05:25:01;;;;;;;35.17;16.17;;;204.80;2252.80;;;;;;5014658;28;20022;-70
2021/03/15 05:27:28;;;;;;;17.23;10.27;;;180.00;2252.80;;;;;;5014563;28;20077;-68
2021/03/15 05:29:57;;;;;;;19.88;12.48;;;179.90;2252.80;;;;;;5014324;28;20026;-68
2021/03/15 05:32:24;;;;;;;6.68;4.60;;;179.80;2252.80;;;;;;5014172;28;20038;-69
2021/03/15 05:34:53;;;;;;;5.22;4.30;;;179.70;2252.80;;;;;;5014369;28;20058;-68
2021/03/15 05:37:19;;;;;;;4.75;3.03;;;179.50;2252.80;;;;;;5014227;28;20057;-68
2021/03/15 05:39:45;;;;;;;5.25;3.95;;;179.30;2252.80;;;;;;5013961;28;20014;-68
2021/03/15 05:42:14;;;;;;;6.47;3.72;;;179.20;2252.80;;;;;;5014153;28;20022;-69
2021/03/15 05:44:57;;;;;;;5.75;3.50;;;179.20;2252.80;;;;;;5014119;28;20071;-67
2021/03/15 05:47:55;;;;;;;5.85;3.20;;;154.40;2252.80;;;;;;5014432;28;20026;-66
2021/03/15 05:50:44;;;;;;;5.82;3.08;;;154.10;2252.80;;;;;;5003679;28;20041;-68
2021/03/15 05:53:45;;;;;;;5.37;3.50;;;153.90;2252.80;;;;;;5013757;28;20041;-69
2021/03/15 05:56:33;;;;;;;6.10;3.42;;;153.70;2252.80;;;;;;4987626;28;20038;-69
2021/03/15 05:59:27;;;;;;;6.10;3.67;;;128.80;2252.80;;;;;;5013421;28;20037;-69
2021/03/15 06:02:14;;;;;;;5.38;3.60;;;128.70;2252.80;;;;;;5009407;28;20025;-69
2021/03/15 06:04:48;;;;;;;5.35;3.53;;;128.60;2252.80;;;;;;5013957;28;20033;-68
2021/03/15 06:07:20;;;;;;;6.75;3.92;;;128.50;2252.80;;;;;;5013499;28;20499;-69
2021/03/15 06:10:09;;;;;;;5.82;3.60;;;128.50;2252.80;;;;;;5012500;28;20837;-68
2021/03/15 06:12:46;;;;;;;7.40;4.25;;;128.60;2252.80;;;;;;5008228;28;20042;-68
2021/03/15 06:15:13;;;;;;;6.38;3.95;;;128.60;2252.80;;;;;;5013712;28;20038;-68
2021/03/15 06:17:39;;;;;;;5.57;3.60;;;128.60;2252.80;;;;;;5013299;28;20021;-68
2021/03/15 06:20:06;;;;;;;6.35;4.25;;;128.50;2252.80;;;;;;5013774;28;20109;-68
2021/03/15 06:22:33;;;;;;;7.40;4.60;;;128.70;2252.80;;;;;;5013152;28;20068;-69
2021/03/15 06:25:01;;;;;;;5.90;3.70;;;128.80;2252.80;;;;;;5013485;28;20030;-69
2021/03/15 06:27:29;;;;;;;6.78;3.97;;;128.70;2252.80;;;;;;5013463;28;20446;-68
2021/03/15 06:29:56;;;;;;;6.10;4.00;;;128.70;2252.80;;;;;;5013192;28;20483;-69
2021/03/15 06:32:25;;;;;;;6.20;3.80;;;128.70;2252.80;;;;;;5013152;28;20080;-69
2021/03/15 06:34:54;;;;;;;5.22;3.60;;;128.60;2252.80;;;;;;5013248;28;20112;-68
2021/03/15 06:37:20;;;;;;;5.40;3.65;;;128.60;2252.80;;;;;;5013011;28;20038;-69
2021/03/15 06:39:49;;;;;;;6.65;3.60;;;128.50;2252.80;;;;;;5012850;28;20025;-68
2021/03/15 06:42:16;;;;;;;5.95;3.25;;;128.60;2252.80;;;;;;5013129;28;20058;-68
2021/03/15 06:44:42;;;;;;;5.78;3.60;;;128.40;2252.80;;;;;;5013008;28;20108;-70
2021/03/15 06:47:09;;;;;;;4.93;3.33;;;128.40;2252.80;;;;;;5013069;28;20101;-69
2021/03/15 06:49:35;;;;;;;5.72;3.30;;;128.30;2252.80;;;;;;5012684;28;20030;-68
2021/03/15 06:52:01;;;;;;;5.78;3.63;;;128.40;2252.80;;;;;;5012992;28;20033;-68
2021/03/15 06:54:28;;;;;;;6.78;3.80;;;128.30;2252.80;;;;;;5012829;28;20026;-68
2021/03/15 06:57:15;;;;;;;5.90;3.60;;;128.10;2252.80;;;;;;5012807;28;20049;-67
2021/03/15 06:59:56;;;;;;;5.43;3.60;;;128.10;2252.80;;;;;;5012907;28;20045;-68
2021/03/15 07:02:29;;;;;;;;;;;128.10;2252.80;;;;;;5013024;28;20014;-67
2021/03/15 07:05:08;;;;;;;5.30;3.55;;;128.00;2252.80;;;;;;5013091;28;19916;-70
2021/03/15 07:07:37;;;;;;;4.63;3.03;;;103.30;2227.20;;;;;;4999236;28;20030;-70
2021/03/15 07:10:17;;;;;;;4.75;3.20;;;103.30;2227.20;;;;;;5012529;28;20111;-68
2021/03/15 07:12:43;;;;;;;6.32;3.50;;;128.00;2252.80;;;;;;5012618;28;20112;-68
2021/03/15 07:15:10;;;;;;;6.05;4.00;;;128.00;2252.80;;;;;;5012485;28;20112;-68
2021/03/15 07:17:36;;;;;;;5.93;4.40;;;128.00;2252.80;;;;;;5012089;28;20478;-68
2021/03/15 07:20:04;;;;;;;5.70;4.00;;;128.00;2252.80;;;;;;5012024;28;20054;-68
2021/03/15 07:22:30;;;;;;;6.32;4.10;;;103.30;2227.20;;;;;;5012308;28;20026;-69
2021/03/15 07:25:04;;;;;;;6.07;4.20;;;128.00;2252.80;;;;;;5012482;28;20092;-68
2021/03/15 07:27:36;;;;;;;11.10;6.70;;;128.00;2252.80;;;;;;5012144;28;20110;-69
2021/03/15 07:30:47;;;;;;;11.07;7.40;;;128.00;2252.80;;;;;;5011966;28;20493;-70
2021/03/15 07:33:17;;;;;;;10.07;8.32;;;128.00;2252.80;;;;;;5009851;28;20042;-69
2021/03/15 07:35:43;;;;;;;19.63;14.18;;;128.00;2252.80;;;;;;5012257;28;20026;-72
2021/03/15 07:38:09;;;;;;;16.30;11.50;;;103.30;2227.20;;;;;;5011938;28;20026;-69
2021/03/15 07:40:46;;;;;;;26.15;18.98;;;128.00;2252.80;;;;;;5011902;28;20029;-68
2021/03/15 07:43:14;;;;;;;12.60;7.35;;;128.00;2252.80;;;;;;5011781;28;20124;-68
2021/03/15 07:45:46;;;;;;;10.38;7.10;;;128.10;2252.80;;;;;;5012212;28;20558;-68
2021/03/15 07:48:20;;;;;;;17.05;11.45;;;128.10;2252.80;;;;;;5011953;28;20390;-69
2021/03/15 07:50:56;;;;;;;12.90;9.57;;;128.20;2252.80;;;;;;5011699;28;20414;-69
2021/03/15 07:53:43;;;;;;;9.40;7.13;;;128.20;2252.80;;;;;;5011148;28;20036;-69
2021/03/15 07:56:27;;;;;;;7.40;5.97;;;128.20;2252.80;;;;;;5010571;28;20038;-69
2021/03/15 07:58:54;;;;;;;12.02;8.43;;;128.20;2252.80;;;;;;5010672;28;20687;-69
2021/03/15 08:01:20;;;;;;;13.52;10.77;;;128.20;2252.80;;;;;;5011656;28;20732;-69
2021/03/15 08:03:46;;;;;;;22.33;17.80;;;128.20;2252.80;;;;;;5011569;28;20017;-68
2021/03/15 08:06:12;;;;;;;19.48;15.07;;;128.20;2252.80;;;;;;5011433;28;20026;-69
2021/03/15 08:08:39;;;;;;;13.63;10.82;;;128.20;2252.80;;;;;;5011078;28;20033;-70
2021/03/15 08:11:08;;;;;;;9.95;7.68;;;128.20;2252.80;;;;;;5011565;28;20030;-69
2021/03/15 08:13:39;;;;;;;18.42;13.10;;;128.10;2252.80;;;;;;5011696;28;20026;-69
2021/03/15 08:16:06;;;;;;;14.20;11.35;;;128.20;2252.80;;;;;;5001555;28;20064;-69
2021/03/15 08:18:33;;;;;;;17.25;13.10;;;128.20;2252.80;;;;;;5010793;28;20037;-69
2021/03/15 08:21:11;;;;;;;11.00;8.23;;;128.30;2252.80;;;;;;5011569;28;20076;-69
2021/03/15 08:23:43;;;;;;;10.77;7.75;;;128.20;2252.80;;;;;;5011249;28;20018;-68
2021/03/15 08:26:11;;;;;;;21.60;15.02;;;128.20;2252.80;;;;;;5011604;28;20445;-68
2021/03/15 08:28:39;;;;;;;20.13;14.55;;;128.10;2252.80;;;;;;5010986;28;20057;-71
2021/03/15 08:31:32;;;;;;;32.92;22.60;;;128.20;2252.80;;;;;;5011237;28;20383;-69
2021/03/15 08:33:58;;;;;;;18.83;12.27;;;128.30;2252.80;;;;;;5010926;28;20391;-68
2021/03/15 08:36:24;;;;;;;13.48;9.82;;;128.30;2252.80;;;;;;5011462;28;20083;-68
2021/03/15 08:38:50;;;;;;;12.43;8.60;;;128.30;2252.80;;;;;;5008312;28;20429;-71
2021/03/15 08:41:27;;;;;;;17.45;10.43;;;128.20;2252.80;;;;;;5008875;28;20427;-71
2021/03/15 08:43:54;;;;;;;14.98;8.82;;;128.30;2252.80;;;;;;5011222;28;20037;-67
2021/03/15 08:46:26;;;;;;;15.27;9.13;;;128.30;2252.80;;;;;;5009896;28;20044;-67
2021/03/15 08:48:54;;;;;;;20.70;11.40;;;128.30;2252.80;;;;;;5000873;28;20495;-69
2021/03/15 08:51:35;;;;;;;12.02;7.68;;;128.30;2252.80;;;;;;5011007;28;20025;-71
2021/03/15 08:54:06;;;;;;;30.63;17.50;;;128.30;2252.80;;;;;;5011330;28;20426;-68
2021/03/15 08:56:31;;;;;;;17.60;11.38;;;128.30;2252.80;;;;;;5010961;28;20026;-68
2021/03/15 08:58:58;;;;;;;13.35;8.05;;;128.30;2252.80;;;;;;5010768;28;20022;-68
2021/03/15 09:01:48;;;;;;;15.27;9.55;;;128.30;2252.80;;;;;;5011232;28;20510;-68
2021/03/15 09:04:29;;;;;;;10.40;7.03;;;128.40;2252.80;;;;;;5011119;28;20133;-68
2021/03/15 09:06:55;;;;;;;13.52;8.65;;;128.20;2252.80;;;;;;5011033;28;20026;-68
2021/03/15 09:09:21;;;;;;;10.90;6.63;;;128.00;2252.80;;;;;;5010762;28;20084;-68
2021/03/15 09:11:51;;;;;;;14.30;8.65;;;128.00;2252.80;;;;;;5011202;28;20030;-68
2021/03/15 09:14:17;;;;;;;16.60;9.65;;;128.10;2252.80;;;;;;5010747;28;20232;-68
2021/03/15 09:16:54;;;;;;;12.63;8.15;;;128.20;2252.80;;;;;;5011414;28;20069;-67
2021/03/15 09:19:20;;;;;;;10.57;6.60;;;128.20;2252.80;;;;;;5010387;28;20403;-68
2021/03/15 09:21:54;;;;;;;9.98;6.43;;;128.10;2252.80;;;;;;5011142;28;20014;-68
2021/03/15 09:24:57;;;;;;;12.80;7.90;;;128.30;2252.80;;;;;;5011040;28;20030;-69
2021/03/15 09:27:28;;;;;;;10.50;6.65;;;128.30;2252.80;;;;;;4989685;28;20116;-68
2021/03/15 09:29:57;;;;;;;;;;;128.40;2252.80;;;;;;5010871;28;20487;-69
2021/03/15 09:32:27;;;;;;;14.52;8.25;;;128.40;2252.80;;;;;;5011151;28;20123;-69
2021/03/15 09:34:54;;;;;;;10.68;6.63;;;128.50;2252.80;;;;;;5010982;28;20030;-70
2021/03/15 09:37:21;;;;;;;11.43;7.20;;;128.40;2252.80;;;;;;5010646;28;20088;-68
2021/03/15 09:39:47;;;;;;;11.07;7.43;;;128.40;2252.80;;;;;;5009990;28;20018;-69
2021/03/15 09:42:13;;;;;;;12.10;7.45;;;128.70;2252.80;;;;;;5010181;28;20026;-69
2021/03/15 09:44:42;;;;;;;26.33;16.15;;;128.60;2252.80;;;;;;5012924;28;20049;-70
2021/03/15 09:47:11;;;;;;;33.72;19.70;;;128.70;2252.80;;;;;;5014395;28;20423;-69
2021/03/15 09:49:40;;;;;;;18.17;10.25;;;128.70;2252.80;;;;;;5010322;28;20026;-69
2021/03/15 09:52:16;;;;;;;16.33;10.23;;;128.70;2252.80;;;;;;5014266;28;20022;-69
2021/03/15 09:54:44;;;;;;;18.58;12.80;;;128.50;2252.80;;;;;;5014130;28;20064;-69
2021/03/15 09:57:11;;;;;;;15.45;10.85;;;128.60;2252.80;;;;;;5012306;28;20159;-69
2021/03/15 09:59:37;;;;;;;23.30;15.25;;;128.70;2252.80;;;;;;5013276;28;20471;-73
2021/03/15 10:02:04;;;;;;;25.58;18.55;;;128.70;2252.80;;;;;;5013200;28;20041;-69
2021/03/15 10:04:33;;;;;;;15.68;11.35;;;128.70;2252.80;;;;;;5010715;28;20064;-69
2021/03/15 10:07:00;;;;;;;15.73;11.73;;;128.70;2252.80;;;;;;5013583;28;20028;-68
2021/03/15 10:09:26;;;;;;;18.85;13.02;;;128.70;2252.80;;;;;;5010489;28;20041;-69
2021/03/15 10:11:53;;;;;;;19.42;15.13;;;128.60;2252.80;;;;;;5013320;28;20037;-72
2021/03/15 10:14:20;;;;;;;9.93;6.93;;;128.70;2252.80;;;;;;5012919;28;20029;-70
2021/03/15 10:17:01;;;;;;;7.53;4.68;;;128.90;2252.80;;;;;;5012851;28;20045;-68
2021/03/15 10:19:29;;;;;;;10.73;7.53;;;128.90;2252.80;;;;;;5010060;28;20077;-68
2021/03/15 10:22:08;;;;;;;6.68;4.53;;;128.90;2252.80;;;;;;5013083;28;20513;-69
2021/03/15 10:24:39;;;;;;;5.90;3.55;;;153.60;2252.80;;;;;;5013061;28;20032;-72
2021/03/15 10:27:14;;;;;;;5.32;3.58;;;153.60;2252.80;;;;;;5011698;28;20030;-68
2021/03/15 10:29:41;;;;;;;5.82;3.28;;;128.90;2252.80;;;;;;5012878;28;20026;-67
2021/03/15 10:32:07;;;;;;;4.50;2.67;;;128.90;2252.80;;;;;;5013354;28;20026;-68
2021/03/15 10:34:34;;;;;;;4.00;2.50;;;128.90;2252.80;;;;;;5013138;28;20041;-68
2021/03/15 10:37:02;;;;;;;4.55;2.80;;;128.90;2252.80;;;;;;5012612;28;20040;-68
2021/03/15 10:39:28;;;;;;;4.00;2.53;;;128.90;2252.80;;;;;;5011157;28;20141;-67
2021/03/15 10:41:55;;;;;;;5.00;2.90;;;128.90;2252.80;;;;;;5009803;28;20482;-68
2021/03/15 10:44:24;;;;;;;5.80;4.03;;;128.90;2252.80;;;;;;5011883;28;20033;-68
2021/03/15 10:46:55;;;;;;;4.63;2.90;;;128.90;2252.80;;;;;;5011304;28;20080;-72
2021/03/15 10:49:25;;;;;;;4.38;2.90;;;128.90;2252.80;;;;;;5009561;28;20442;-68
2021/03/15 10:51:53;;;;;;;10.63;6.32;;;128.90;2252.80;;;;;;5011338;28;20510;-67
2021/03/15 10:54:31;;;;;;;5.78;3.65;;;128.90;2252.80;;;;;;5012471;28;20033;-68
2021/03/15 10:57:13;;;;;;;4.70;3.45;;;128.90;2252.80;;;;;;5010459;28;20018;-69
2021/03/15 10:59:39;;;;;;;6.80;4.60;;;128.90;2252.80;;;;;;5011627;28;20396;-69
2021/03/15 11:02:05;;;;;;;6.85;4.80;;;128.90;2252.80;;;;;;5012207;28;20069;-69
2021/03/15 11:04:38;;;;;;;7.78;5.78;;;128.90;2252.80;;;;;;5012196;28;20463;-68
2021/03/15 11:07:22;;;;;;;9.60;6.50;;;153.60;2252.80;;;;;;5012085;28;20547;-68
2021/03/15 11:09:56;;;;;;;5.28;3.25;;;153.70;2252.80;;;;;;5006285;28;20050;-71
2021/03/15 11:12:41;;;;;;;10.85;5.85;;;153.60;2252.80;;;;;;5012154;28;20105;-68
2021/03/15 11:15:14;;;;;;;15.27;10.90;;;153.70;2252.80;;;;;;5012018;28;20029;-74
2021/03/15 11:17:41;;;;;;;14.60;11.05;;;153.60;2252.80;;;;;;5007163;28;20088;-67
2021/03/15 11:20:10;;;;;;;17.10;12.43;;;153.70;2252.80;;;;;;5012171;28;20042;-73
2021/03/15 11:22:50;;;;;;;15.82;10.77;;;153.60;2252.80;;;;;;5012355;28;20052;-68
2021/03/15 11:25:17;;;;;;;15.87;7.80;;;153.70;2252.80;;;;;;5012410;28;20112;-68
2021/03/15 11:27:47;;;;;;;24.85;12.85;;;153.80;2252.80;;;;;;5012452;28;20029;-69
2021/03/15 11:30:22;;;;;;;6.55;5.15;;;153.80;2252.80;;;;;;5011923;28;20021;-72
2021/03/15 11:32:48;;;;;;;10.48;7.80;;;153.70;2252.80;;;;;;5011882;28;20040;-69
2021/03/15 11:35:21;;;;;;;11.80;7.97;;;153.60;2252.80;;;;;;5012457;28;20026;-73
2021/03/15 11:37:48;;;;;;;13.63;11.38;;;153.80;2252.80;;;;;;5006693;28;20030;-68
2021/03/15 11:40:25;;;;;;;15.07;10.52;;;153.60;2252.80;;;;;;5011914;28;20110;-68
2021/03/15 11:42:55;;;;;;;10.60;7.30;;;153.70;2252.80;;;;;;4995214;28;20030;-68
2021/03/15 11:45:25;;;;;;;14.05;12.55;;;153.80;2252.80;;;;;;5011906;28;20034;-67
2021/03/15 11:47:51;;;;;;;10.30;7.68;;;153.90;2252.80;;;;;;5011510;28;20468;-73
2021/03/15 11:50:17;;;;;;;5.45;4.00;;;154.00;2252.80;;;;;;5011890;28;20030;-69
2021/03/15 11:52:43;;;;;;;10.75;8.45;;;154.10;2252.80;;;;;;5011825;28;20029;-75
2021/03/15 11:55:09;;;;;;;8.75;6.25;;;154.30;2252.80;;;;;;5010269;28;20029;-70
2021/03/15 11:57:39;;;;;;;18.77;13.68;;;154.40;2252.80;;;;;;5009551;28;20455;-71
2021/03/15 12:00:09;;;;;;;6.90;5.50;;;154.40;2252.80;;;;;;5010863;28;20033;-68
2021/03/15 12:02:36;;;;;;;6.80;5.45;;;154.40;2252.80;;;;;;5011574;28;20022;-67
2021/03/15 12:05:10;;;;;;;4.30;3.05;;;154.20;2252.80;;;;;;5006116;28;20021;-71
2021/03/15 12:07:40;;;;;;;10.80;8.77;;;154.20;2252.80;;;;;;5000186;28;20471;-76
2021/03/15 12:10:07;;;;;;;15.52;12.02;;;154.30;2252.80;;;;;;5010437;28;20541;-72
2021/03/15 12:12:33;;;;;;;6.82;5.00;;;154.50;2252.80;;;;;;5010445;28;20054;-72
2021/03/15 12:15:00;;;;;;;20.77;14.80;;;154.50;2252.80;;;;;;5008936;28;20021;-78
2021/03/15 12:17:26;;;;;;;20.45;16.13;;;154.20;2252.80;;;;;;5011957;28;20108;-72
2021/03/15 12:19:51;;;;;;;10.27;8.15;;;154.30;2252.80;;;;;;5010306;28;20121;-79